Time;durP1;ratioP1;P1;durP2;ratioP2;P2;SDS_P1;SDS_P2;PMS_P1;PMS_P2;Temp;Humidity;BMP_temperature;BMP_pressure;BME280_temperature;BME280_humidity;BME280_pressure;Samples;Min_cycle;Max_cycle;Signal;HPM_P1;HPM_P2
2021/07/06 00:01:16;;;;;;;3.58;1.50;;;18.00;75.60;;;16.71;74.10;95706.72;4968425;28;20054;-68
2021/07/06 00:03:41;;;;;;;2.35;1.52;;;18.10;76.00;;;16.71;73.78;95706.72;4970004;28;20356;-68
2021/07/06 00:06:07;;;;;;;1.95;1.23;;;18.00;76.10;;;16.69;74.06;95704.31;4970164;28;20384;-67
2021/07/06 00:08:33;;;;;;;1.73;1.33;;;18.00;76.00;;;16.67;74.34;95710.91;4952367;28;20514;-67
2021/07/06 00:10:58;;;;;;;3.10;1.60;;;18.00;75.90;;;16.65;74.21;95697.84;4967788;28;20047;-68
2021/07/06 00:13:24;;;;;;;4.60;1.50;;;17.90;76.10;;;16.63;74.06;95699.13;4969123;28;20031;-67
2021/07/06 00:15:50;;;;;;;2.38;1.35;;;17.90;76.00;;;16.59;74.42;95697.97;4967917;28;20038;-67
2021/07/06 00:18:16;;;;;;;3.65;1.90;;;17.80;76.10;;;16.56;74.44;95693.16;4954797;28;20031;-67
2021/07/06 00:20:41;;;;;;;3.13;1.70;;;17.80;76.40;;;16.53;74.79;95699.72;4987236;28;20062;-68
2021/07/06 00:23:07;;;;;;;3.25;1.40;;;17.80;76.70;;;16.50;74.64;95700.19;4960364;28;20039;-67
2021/07/06 00:25:33;;;;;;;2.65;1.70;;;17.80;76.70;;;16.46;75.14;95694.53;4971463;28;20217;-67
2021/07/06 00:27:59;;;;;;;2.90;1.40;;;17.80;76.60;;;16.44;74.80;95690.50;4986993;28;20480;-68
2021/07/06 00:30:25;;;;;;;2.30;1.50;;;17.70;76.50;;;16.43;75.24;95699.53;4962423;28;20069;-68
2021/07/06 00:32:51;;;;;;;3.72;1.77;;;17.70;76.60;;;16.38;75.40;95692.25;4978639;28;20142;-67
2021/07/06 00:35:17;;;;;;;3.40;1.55;;;17.70;76.80;;;16.39;74.80;95703.69;4969685;28;20050;-68
2021/07/06 00:37:44;;;;;;;2.97;1.70;;;17.70;76.90;;;16.37;74.59;95701.28;4987173;28;20078;-68
2021/07/06 00:40:10;;;;;;;2.15;1.40;;;17.70;77.00;;;16.37;75.72;95701.28;4970625;28;20476;-68
2021/07/06 00:42:44;;;;;;;2.95;1.90;;;17.70;77.00;;;16.33;76.18;95684.22;4983390;28;20039;-68
2021/07/06 00:45:11;;;;;;;2.78;1.50;;;17.70;77.00;;;16.31;75.47;95680.97;4936030;28;20043;-68
2021/07/06 00:47:38;;;;;;;2.50;1.50;;;17.60;76.90;;;16.29;75.42;95693.66;4967941;28;20031;-68
2021/07/06 00:50:08;;;;;;;4.70;1.77;;;17.60;76.80;;;16.27;75.25;95685.13;4951539;28;20028;-68
2021/07/06 00:55:10;;;;;;;3.88;1.50;;;17.60;77.10;;;16.22;74.84;95690.31;5000355;28;20490;-68
2021/07/06 00:57:37;;;;;;;2.33;1.75;;;17.60;77.30;;;16.19;75.53;95682.84;4990874;28;20513;-68
2021/07/06 01:00:15;;;;;;;4.05;1.70;;;17.50;77.50;;;16.16;77.33;95685.97;4997460;28;20036;-67
2021/07/06 01:02:41;;;;;;;4.95;1.85;;;17.50;77.80;;;16.13;76.07;95686.44;5009323;28;20123;-68
2021/07/06 01:05:09;;;;;;;2.30;1.60;;;17.40;77.90;;;16.13;76.06;95683.78;4945643;28;20035;-67
2021/07/06 01:07:35;;;;;;;3.47;1.80;;;17.40;78.10;;;16.12;76.30;95682.97;4952179;28;20042;-67
2021/07/06 01:10:02;;;;;;;4.00;1.60;;;17.50;78.10;;;16.11;76.59;95681.38;4949500;28;20047;-67
2021/07/06 01:12:31;;;;;;;3.20;1.63;;;17.50;78.00;;;16.09;75.63;95672.03;4974502;28;20514;-68
2021/07/06 01:15:01;;;;;;;2.75;1.85;;;17.40;77.90;;;16.06;76.68;95680.44;4983011;28;20442;-67
2021/07/06 01:17:28;;;;;;;3.45;1.80;;;17.40;77.80;;;16.05;76.00;95681.47;4946352;28;20038;-67
2021/07/06 01:19:55;;;;;;;2.35;1.52;;;17.40;77.60;;;16.04;75.66;95685.16;4939425;28;20089;-68
2021/07/06 01:22:28;;;;;;;4.43;1.88;;;17.40;77.80;;;16.01;77.32;95675.81;4958348;28;20057;-67
2021/07/06 01:24:54;;;;;;;3.78;1.80;;;17.30;77.80;;;16.00;76.56;95663.59;4974516;28;20453;-67
2021/07/06 01:27:20;;;;;;;3.33;1.67;;;17.30;78.00;;;15.99;76.19;95666.50;4963624;28;20037;-68
2021/07/06 01:29:45;;;;;;;3.47;1.85;;;17.30;78.10;;;15.99;75.82;95666.50;4966575;28;20390;-68
2021/07/06 01:32:11;;;;;;;4.22;1.50;;;17.30;78.30;;;15.95;76.71;95660.84;4974159;28;20058;-68
2021/07/06 01:34:37;;;;;;;5.18;1.75;;;17.30;78.30;;;15.92;76.67;95662.13;4983848;28;20078;-68
2021/07/06 01:37:03;;;;;;;4.05;1.70;;;17.30;78.40;;;15.92;75.73;95653.38;4979660;28;20077;-67
2021/07/06 01:39:29;;;;;;;2.85;1.65;;;17.20;78.50;;;15.88;77.25;95655.69;4968440;28;20034;-67
2021/07/06 01:41:56;;;;;;;5.93;1.90;;;17.10;78.70;;;15.84;76.59;95649.22;4971063;28;20035;-67
2021/07/06 01:44:24;;;;;;;4.43;1.63;;;17.10;78.80;;;15.83;77.47;95649.44;4959682;28;20332;-67
2021/07/06 01:46:50;;;;;;;4.60;1.65;;;17.10;78.90;;;15.82;77.56;95643.31;4970657;28;20407;-68
2021/07/06 01:49:16;;;;;;;4.07;1.58;;;17.20;78.90;;;15.83;76.76;95652.91;4955706;28;20040;-68
2021/07/06 01:51:43;;;;;;;2.95;1.70;;;17.10;78.90;;;15.83;76.57;95636.97;4976557;28;20038;-68
2021/07/06 01:54:08;;;;;;;4.07;2.05;;;17.10;78.90;;;15.83;76.72;95642.28;4989459;28;20061;-69
2021/07/06 01:56:43;;;;;;;3.05;1.90;;;17.10;78.90;;;15.80;77.66;95636.66;4986242;28;20030;-68
2021/07/06 01:59:08;;;;;;;4.22;1.77;;;17.10;78.90;;;15.78;77.65;95634.22;4991646;28;20476;-69
2021/07/06 02:01:35;;;;;;;3.53;1.50;;;17.10;78.80;;;15.76;77.73;95636.31;4946062;28;20030;-68
2021/07/06 02:04:01;;;;;;;2.63;1.73;;;17.10;78.90;;;15.75;77.04;95629.41;4972999;28;20081;-67
2021/07/06 02:06:27;;;;;;;2.70;1.45;;;17.10;78.60;;;15.73;77.72;95630.66;4973403;28;20044;-68
2021/07/06 02:08:53;;;;;;;3.03;1.70;;;17.10;78.70;;;15.71;77.80;95632.75;4986657;28;20038;-68
2021/07/06 02:11:19;;;;;;;2.97;1.55;;;17.10;78.90;;;15.69;77.94;95629.53;4964685;28;20583;-69
2021/07/06 02:13:44;;;;;;;3.42;1.42;;;17.00;79.30;;;15.70;78.37;95625.84;4972161;28;20509;-68
2021/07/06 02:16:11;;;;;;;2.97;1.63;;;17.00;79.20;;;15.69;77.57;95618.91;4966516;28;20398;-67
2021/07/06 02:18:37;;;;;;;3.67;1.45;;;17.00;79.00;;;15.65;77.78;95612.47;4988005;28;20088;-68
2021/07/06 02:21:03;;;;;;;4.60;2.03;;;17.00;79.00;;;15.60;77.41;95610.50;4988108;28;20030;-68
2021/07/06 02:23:29;;;;;;;19.15;15.35;;;16.90;79.10;;;15.57;78.41;95605.63;4973360;28;20093;-68
2021/07/06 02:25:57;;;;;;;24.90;19.02;;;16.90;79.60;;;15.55;77.65;95607.72;4962975;28;20105;-68
2021/07/06 02:28:23;;;;;;;22.33;17.20;;;16.90;79.80;;;15.55;77.58;95610.34;4970148;28;20034;-68
2021/07/06 02:30:49;;;;;;;6.78;3.72;;;16.90;79.70;;;15.55;77.93;95610.34;4989311;28;20555;-68
2021/07/06 02:33:15;;;;;;;8.60;2.45;;;16.90;79.80;;;15.53;78.65;95609.78;4933724;28;20382;-68
2021/07/06 02:35:41;;;;;;;20.80;14.52;;;16.90;79.70;;;15.54;78.83;95614.06;4937950;28;20042;-68
2021/07/06 02:38:06;;;;;;;41.50;32.22;;;16.90;79.70;;;15.50;78.26;95611.06;4954927;28;20113;-68
2021/07/06 02:40:33;;;;;;;22.23;16.70;;;16.90;79.70;;;15.49;77.74;95606.78;4970400;28;20125;-68
2021/07/06 02:42:59;;;;;;;7.57;4.07;;;16.90;79.50;;;15.48;77.23;95607.84;4981499;28;20030;-69
2021/07/06 02:45:25;;;;;;;4.88;2.00;;;16.80;79.40;;;15.48;78.86;95601.72;4980497;28;20557;-68
2021/07/06 02:47:51;;;;;;;3.15;1.83;;;16.80;79.40;;;15.44;78.66;95601.38;4973022;28;20117;-67
2021/07/06 02:50:18;;;;;;;2.60;1.80;;;16.80;79.50;;;15.45;78.94;95596.91;4953057;28;20038;-68
2021/07/06 02:52:44;;;;;;;4.63;2.15;;;16.80;79.50;;;15.44;78.68;95595.28;4961345;28;20133;-68
2021/07/06 02:55:10;;;;;;;9.15;4.82;;;16.70;79.50;;;15.41;77.98;95591.25;4968394;28;20046;-68
2021/07/06 02:57:36;;;;;;;8.23;5.55;;;16.70;79.40;;;15.39;78.49;95587.19;4950812;28;20035;-70
2021/07/06 03:00:06;;;;;;;10.80;8.85;;;16.80;79.30;;;15.37;79.84;95584.78;4978415;28;20037;-69
2021/07/06 03:02:32;;;;;;;7.57;3.83;;;16.70;79.40;;;15.36;78.29;95582.38;4984829;28;20030;-66
2021/07/06 03:04:58;;;;;;;6.50;2.38;;;16.70;79.40;;;15.35;77.97;95578.91;4960695;28;20059;-67
2021/07/06 03:07:24;;;;;;;4.53;1.90;;;16.70;79.20;;;15.35;78.65;95580.75;4981974;28;20468;-67
2021/07/06 03:09:49;;;;;;;14.18;8.95;;;16.70;79.20;;;15.35;78.27;95584.22;5003000;28;20057;-68
2021/07/06 03:12:15;;;;;;;17.17;12.55;;;16.70;79.20;;;15.33;78.68;95584.44;4970646;28;20057;-67
2021/07/06 03:14:41;;;;;;;7.97;5.05;;;16.70;79.20;;;15.32;77.67;95590.78;4971377;28;20039;-67
2021/07/06 03:17:07;;;;;;;12.60;4.78;;;16.70;79.10;;;15.31;77.67;95591.00;4945238;28;20049;-68
2021/07/06 03:19:33;;;;;;;11.60;8.02;;;16.70;79.20;;;15.31;78.42;95591.00;4990240;28;20085;-68
2021/07/06 03:21:58;;;;;;;16.80;12.60;;;16.70;79.30;;;15.28;78.51;95586.97;4992729;28;20514;-68
2021/07/06 03:24:24;;;;;;;14.77;9.95;;;16.70;79.40;;;15.28;78.84;95581.69;4978751;28;20043;-68
2021/07/06 03:26:50;;;;;;;6.53;3.45;;;16.70;79.30;;;15.27;78.39;95590.66;4981542;28;20033;-68
2021/07/06 03:29:15;;;;;;;6.55;2.60;;;16.70;79.30;;;15.26;78.27;95583.75;4966954;28;20027;-68
2021/07/06 03:31:41;;;;;;;6.70;1.90;;;16.60;79.30;;;15.26;78.94;95583.75;4992497;28;20117;-67
2021/07/06 03:34:07;;;;;;;5.40;2.22;;;16.60;79.40;;;15.22;78.24;95582.63;4993146;28;20100;-68
2021/07/06 03:36:32;;;;;;;3.80;2.03;;;16.60;79.20;;;15.20;78.99;95590.00;4976589;28;20104;-68
2021/07/06 03:38:58;;;;;;;5.25;2.20;;;16.60;79.30;;;15.18;79.38;95586.75;4974495;28;20463;-68
2021/07/06 03:41:24;;;;;;;6.35;1.98;;;16.60;79.40;;;15.19;78.20;95584.91;4940259;28;20832;-68
2021/07/06 03:43:50;;;;;;;4.63;1.90;;;16.60;79.40;;;15.19;78.57;95576.97;4959657;28;20096;-68
2021/07/06 03:46:15;;;;;;;6.55;2.20;;;16.60;79.40;;;15.21;78.85;95585.50;4987419;28;20465;-70
2021/07/06 03:48:41;;;;;;;4.88;1.77;;;16.60;79.40;;;15.22;77.96;95581.81;4973183;28;20097;-70
2021/07/06 03:51:07;;;;;;;4.13;1.95;;;16.60;79.50;;;15.23;79.08;95580.78;4990689;28;20045;-72
2021/07/06 03:53:32;;;;;;;5.43;1.67;;;16.70;79.30;;;15.24;77.93;95580.53;4976330;28;20054;-73
2021/07/06 03:55:58;;;;;;;3.10;1.70;;;16.70;79.30;;;15.24;78.70;95575.25;4990316;28;20033;-71
2021/07/06 03:58:24;;;;;;;3.30;1.88;;;16.70;79.20;;;15.24;78.05;95577.88;4992609;28;20057;-72
2021/07/06 04:00:50;;;;;;;5.00;1.85;;;16.70;79.10;;;15.24;78.77;95579.72;4992073;28;20027;-72
2021/07/06 04:03:15;;;;;;;8.75;2.72;;;16.70;79.00;;;15.24;78.79;95569.94;4985088;28;20037;-72
2021/07/06 04:05:41;;;;;;;2.83;1.60;;;16.70;79.10;;;15.25;78.62;95568.91;4973149;28;20120;-73
2021/07/06 04:08:07;;;;;;;5.00;1.77;;;16.70;79.20;;;15.26;79.12;95554.63;4995311;28;20030;-72
2021/07/06 04:10:33;;;;;;;2.78;1.73;;;16.70;79.20;;;15.26;78.63;95562.56;4977244;28;20108;-72
2021/07/06 04:12:58;;;;;;;3.88;1.80;;;16.70;79.20;;;15.26;79.35;95559.91;5011692;28;20030;-73
2021/07/06 04:15:25;;;;;;;6.15;1.70;;;16.70;79.20;;;15.27;78.23;95552.78;4962572;28;20042;-72
2021/07/06 04:17:50;;;;;;;2.60;1.58;;;16.80;79.20;;;15.29;79.28;95562.09;4957017;28;20039;-72
2021/07/06 04:20:16;;;;;;;5.47;1.70;;;16.80;79.30;;;15.33;78.31;95563.25;4956032;28;20117;-71
2021/07/06 04:22:43;;;;;;;4.95;2.15;;;16.80;79.20;;;15.38;78.77;95564.38;4953005;28;20570;-72
2021/07/06 04:25:09;;;;;;;13.85;9.45;;;16.90;79.20;;;15.41;78.80;95566.59;4972297;28;20046;-72
2021/07/06 04:27:35;;;;;;;7.25;3.38;;;17.00;79.50;;;15.45;78.69;95565.09;4956662;28;20035;-72
2021/07/06 04:30:01;;;;;;;7.13;2.42;;;17.00;79.10;;;15.49;79.51;95560.94;4972273;28;20054;-72
2021/07/06 04:32:27;;;;;;;4.78;1.75;;;17.00;79.10;;;15.51;78.16;95567.63;4992687;28;20031;-72
2021/07/06 04:34:52;;;;;;;2.05;1.40;;;17.10;78.90;;;15.52;79.22;95571.06;4992763;28;20069;-72
2021/07/06 04:37:18;;;;;;;3.05;1.50;;;17.10;78.50;;;15.54;79.07;95579.59;5003922;28;20098;-72
2021/07/06 04:39:44;;;;;;;5.00;1.58;;;17.10;78.40;;;15.57;78.35;95584.41;4978961;28;20048;-72
2021/07/06 04:42:12;;;;;;;4.32;1.60;;;17.10;78.50;;;15.59;78.47;95583.19;4994807;28;20037;-72
2021/07/06 04:44:38;;;;;;;4.68;1.63;;;17.10;78.50;;;15.61;78.80;95586.44;4995299;28;20038;-71
2021/07/06 04:47:04;;;;;;;4.65;1.67;;;17.10;78.40;;;15.65;79.01;95580.66;4994346;28;20060;-72
2021/07/06 04:49:30;;;;;;;3.92;1.40;;;17.20;78.50;;;15.68;79.11;95591.59;4975633;28;20039;-72
2021/07/06 04:51:56;;;;;;;3.10;1.50;;;17.20;78.60;;;15.73;78.08;95588.25;4991266;28;20058;-72
2021/07/06 04:54:24;;;;;;;3.08;1.30;;;17.30;78.70;;;15.78;79.05;95585.69;4959257;28;20085;-72
2021/07/06 04:56:52;;;;;;;4.90;1.92;;;17.40;78.70;;;15.82;78.78;95590.28;4991351;28;20510;-72
2021/07/06 04:59:18;;;;;;;3.80;1.40;;;17.40;78.50;;;15.85;77.94;95592.50;4990331;28;20077;-71
2021/07/06 05:01:44;;;;;;;3.97;1.65;;;17.40;78.30;;;15.88;78.78;95585.91;4975165;28;20026;-72
2021/07/06 05:04:10;;;;;;;3.00;1.88;;;17.50;78.70;;;15.91;78.39;95586.25;4975337;28;20050;-72
2021/07/06 05:06:36;;;;;;;3.47;1.98;;;17.60;78.70;;;15.97;78.76;95583.69;4975402;28;20046;-72
2021/07/06 05:09:02;;;;;;;2.60;1.75;;;17.60;78.50;;;16.01;79.29;95584.84;4993590;28;20034;-72
2021/07/06 05:11:27;;;;;;;3.38;1.60;;;17.60;78.70;;;16.06;79.15;95569.81;4986521;28;20050;-71
2021/07/06 05:13:53;;;;;;;7.05;2.08;;;17.60;78.40;;;16.10;78.90;95567.53;4955617;28;20057;-72
2021/07/06 05:16:19;;;;;;;3.40;1.60;;;17.70;78.50;;;16.14;78.65;95569.44;4972324;28;20026;-72
2021/07/06 05:18:44;;;;;;;6.70;1.77;;;17.70;78.60;;;16.20;78.25;95565.03;4989975;28;20081;-72
2021/07/06 05:21:10;;;;;;;2.78;1.58;;;17.80;78.40;;;16.23;78.44;95561.91;4989973;28;20026;-72
2021/07/06 05:23:36;;;;;;;4.35;1.60;;;17.80;78.20;;;16.27;78.05;95557.72;4990923;28;20097;-72
2021/07/06 05:26:02;;;;;;;7.13;1.58;;;17.90;78.00;;;16.35;78.90;95559.22;4994249;28;20061;-72
2021/07/06 05:28:28;;;;;;;3.45;1.65;;;18.00;78.30;;;16.41;78.88;95555.59;5006575;28;20084;-72
2021/07/06 05:30:54;;;;;;;2.60;1.70;;;18.00;78.50;;;16.49;78.62;95561.31;5010090;28;20057;-72
2021/07/06 05:33:20;;;;;;;2.75;1.60;;;18.10;78.50;;;16.58;78.95;95564.41;4992296;28;20148;-72
2021/07/06 05:35:46;;;;;;;3.35;1.60;;;18.20;78.70;;;16.68;78.86;95559.28;4974134;28;20110;-72
2021/07/06 05:38:12;;;;;;;5.43;1.70;;;18.40;78.50;;;16.80;78.79;95552.06;4973453;28;20128;-71
2021/07/06 05:40:39;;;;;;;104.72;80.00;;;18.60;78.00;;;16.93;78.67;95550.94;4977853;28;20062;-72
2021/07/06 05:43:07;;;;;;;20.15;14.75;;;18.70;77.50;;;17.08;78.97;95547.72;4989519;28;20062;-72
2021/07/06 05:45:34;;;;;;;4.57;2.95;;;19.00;76.60;;;17.22;78.29;95543.69;4974065;28;20058;-72
2021/07/06 05:48:00;;;;;;;4.88;2.60;;;19.10;75.60;;;17.36;78.47;95544.13;4990080;28;20034;-72
2021/07/06 05:50:26;;;;;;;4.35;2.22;;;19.40;75.10;;;17.52;77.75;95548.59;4971186;28;20045;-72
2021/07/06 05:52:52;;;;;;;5.30;2.30;;;19.80;74.20;;;17.69;77.82;95548.59;4977052;28;20661;-72
2021/07/06 05:55:17;;;;;;;3.97;1.80;;;20.10;73.10;;;17.86;78.22;95545.84;5001028;28;20037;-72
2021/07/06 05:57:44;;;;;;;5.40;1.90;;;20.30;72.70;;;18.04;77.70;95548.22;4977185;28;20045;-71
2021/07/06 06:00:11;;;;;;;3.58;1.45;;;20.40;71.80;;;18.20;76.78;95544.66;4992846;28;20168;-71
2021/07/06 06:02:37;;;;;;;2.50;1.17;;;20.60;71.50;;;18.39;76.87;95531.03;5009564;28;20080;-71
2021/07/06 06:05:05;;;;;;;2.33;1.50;;;20.80;70.90;;;18.59;77.03;95528.56;4992512;28;20502;-71
2021/07/06 06:07:31;;;;;;;8.57;3.80;;;21.10;71.10;;;18.80;77.08;95533.03;4994880;28;20034;-72
2021/07/06 06:09:57;;;;;;;4.55;3.22;;;21.40;69.50;;;19.00;75.65;95520.91;4989274;28;20134;-72
2021/07/06 06:12:23;;;;;;;4.60;2.42;;;21.60;69.00;;;19.18;75.04;95517.81;4989668;28;20570;-72
2021/07/06 06:14:49;;;;;;;1.90;1.20;;;21.80;68.70;;;19.40;75.12;95515.81;4989750;28;20045;-72
2021/07/06 06:17:14;;;;;;;2.15;1.10;;;22.00;67.90;;;19.60;74.35;95519.69;4973000;28;20074;-71
2021/07/06 06:19:40;;;;;;;2.50;1.25;;;22.20;66.30;;;19.76;73.61;95516.03;4989358;28;20054;-71
2021/07/06 06:22:06;;;;;;;3.30;1.20;;;22.30;65.00;;;19.94;73.28;95515.59;4993722;28;20077;-71
2021/07/06 06:24:32;;;;;;;3.88;1.15;;;22.60;63.60;;;20.09;72.46;95517.47;4989962;28;20117;-71
2021/07/06 06:26:57;;;;;;;4.10;2.25;;;22.80;63.70;;;20.26;71.61;95511.94;4973534;28;20069;-71
2021/07/06 06:29:23;;;;;;;2.55;1.50;;;23.00;62.70;;;20.41;70.64;95512.00;4972482;28;20034;-71
2021/07/06 06:31:49;;;;;;;32.45;25.83;;;23.10;62.20;;;20.56;70.44;95517.34;4989132;28;20062;-71
2021/07/06 06:34:15;;;;;;;8.23;5.53;;;23.50;62.30;;;20.71;69.74;95514.69;4969103;28;20047;-71
2021/07/06 06:36:40;;;;;;;4.03;1.85;;;24.00;61.60;;;20.88;70.55;95511.75;4977718;28;20108;-71
2021/07/06 06:39:06;;;;;;;3.03;1.23;;;24.30;60.60;;;21.06;69.82;95518.44;4972168;28;20030;-71
2021/07/06 06:41:32;;;;;;;2.40;1.17;;;24.40;58.30;;;21.21;69.26;95502.34;4980661;28;20081;-71
2021/07/06 06:43:58;;;;;;;6.97;4.65;;;24.50;58.90;;;21.40;69.41;95503.41;4985222;28;20033;-71
2021/07/06 06:46:25;;;;;;;7.65;6.00;;;24.60;59.20;;;21.63;68.38;95490.50;4976667;28;20512;-71
2021/07/06 06:48:51;;;;;;;6.75;4.35;;;24.80;58.60;;;21.85;68.32;95493.63;4992545;28;20022;-70
2021/07/06 06:51:16;;;;;;;2.25;0.95;;;25.10;58.10;;;22.07;68.17;95492.50;4957081;28;20118;-71
2021/07/06 06:53:42;;;;;;;2.40;1.33;;;25.20;57.50;;;22.26;67.41;95490.78;4937662;28;20510;-71
2021/07/06 06:56:08;;;;;;;3.20;1.20;;;25.30;56.70;;;22.38;67.31;95485.84;4988054;28;20113;-71
2021/07/06 06:58:34;;;;;;;5.25;0.95;;;25.40;56.80;;;22.51;66.44;95477.22;4989127;28;20038;-71
2021/07/06 07:01:00;;;;;;;3.92;1.02;;;25.40;56.50;;;22.61;65.71;95477.13;4988351;28;20049;-72
2021/07/06 07:03:25;;;;;;;5.47;1.10;;;25.40;55.70;;;22.76;65.04;95470.03;4989142;28;20022;-71
2021/07/06 07:05:52;;;;;;;2.55;1.00;;;25.80;54.40;;;22.91;65.03;95467.28;4973203;28;20039;-71
2021/07/06 07:08:19;;;;;;;6.88;1.33;;;26.00;53.80;;;23.06;64.25;95466.31;4985659;28;20031;-71
2021/07/06 07:10:46;;;;;;;2.35;1.10;;;26.20;53.40;;;23.18;63.65;95464.06;4999321;28;20041;-71
2021/07/06 07:13:12;;;;;;;5.35;1.08;;;26.30;52.30;;;23.32;63.43;95464.19;4992052;28;20030;-71
2021/07/06 07:15:38;;;;;;;2.17;0.82;;;26.50;52.40;;;23.50;63.13;95458.88;5008606;28;20474;-70
2021/07/06 07:18:03;;;;;;;2.95;0.98;;;26.90;52.10;;;23.71;62.64;95458.66;4992193;28;20034;-71
2021/07/06 07:20:29;;;;;;;3.42;1.10;;;27.20;51.60;;;23.91;62.83;95460.28;4992020;28;20517;-70
2021/07/06 07:22:56;;;;;;;5.88;1.17;;;27.50;51.20;;;24.08;61.76;95474.03;4998389;28;20034;-71
2021/07/06 07:25:22;;;;;;;1.38;0.82;;;27.50;51.20;;;24.16;61.97;95473.38;4972023;28;20054;-71
2021/07/06 07:27:47;;;;;;;4.22;2.60;;;27.00;51.30;;;24.17;60.92;95469.59;4974870;28;20536;-71
2021/07/06 07:30:15;;;;;;;7.00;6.30;;;26.70;51.30;;;24.13;60.70;95474.75;4986788;28;20030;-71
2021/07/06 07:32:41;;;;;;;2.33;1.42;;;26.60;52.00;;;24.13;60.84;95468.59;4972266;28;20038;-72
2021/07/06 07:35:07;;;;;;;4.25;1.40;;;26.90;51.30;;;24.22;60.42;95474.13;4969062;28;20082;-71
2021/07/06 07:37:33;;;;;;;3.13;1.00;;;27.30;52.10;;;24.37;60.42;95468.56;4953710;28;20031;-71
2021/07/06 07:39:59;;;;;;;1.88;0.80;;;27.70;51.30;;;24.52;60.71;95472.91;4952960;28;20027;-71
2021/07/06 07:42:24;;;;;;;2.80;0.60;;;27.90;50.40;;;24.62;60.02;95476.22;4955484;28;20070;-71
2021/07/06 07:44:51;;;;;;;2.50;0.80;;;28.10;49.10;;;24.77;59.57;95472.50;4972655;28;20034;-72
2021/07/06 07:47:17;;;;;;;1.80;0.68;;;28.20;49.60;;;24.94;59.54;95464.69;4937129;28;20050;-71
2021/07/06 07:49:42;;;;;;;1.33;0.80;;;28.50;48.70;;;25.09;59.17;95477.09;4937022;28;20031;-72
2021/07/06 07:52:08;;;;;;;1.58;0.90;;;28.60;48.30;;;25.25;58.69;95477.63;4971162;28;20038;-72
2021/07/06 07:54:34;;;;;;;1.33;0.73;;;28.70;47.60;;;25.41;58.11;95475.47;4956668;28;20042;-72
2021/07/06 07:57:00;;;;;;;1.85;0.90;;;29.00;47.00;;;25.53;57.66;95468.47;4972120;28;20035;-72
2021/07/06 07:59:26;;;;;;;2.08;0.90;;;29.00;47.00;;;25.69;57.72;95469.03;5000011;28;20505;-72
2021/07/06 08:01:52;;;;;;;0.85;0.60;;;29.20;47.00;;;25.90;57.04;95466.72;4979181;28;20038;-72
2021/07/06 08:04:17;;;;;;;1.17;0.80;;;29.30;45.40;;;26.00;56.83;95458.41;5011333;28;20120;-71
2021/07/06 08:06:43;;;;;;;1.20;0.80;;;29.40;46.30;;;26.15;56.93;95458.09;5012830;28;20038;-72
2021/07/06 08:09:09;;;;;;;2.80;0.85;;;29.60;46.80;;;26.33;56.62;95447.47;4978231;28;20080;-72
2021/07/06 08:11:35;;;;;;;0.80;0.70;;;29.80;45.90;;;26.53;55.55;95441.63;5011685;28;20054;-72
2021/07/06 08:14:00;;;;;;;1.90;1.13;;;30.00;45.20;;;26.76;55.18;95443.22;4978405;28;20073;-72
2021/07/06 08:16:26;;;;;;;5.90;4.70;;;30.20;44.50;;;26.91;54.28;95441.22;4976949;28;20038;-71
2021/07/06 08:18:52;;;;;;;3.65;1.80;;;30.30;43.50;;;27.07;54.26;95445.16;4993045;28;20114;-71
2021/07/06 08:21:20;;;;;;;0.80;0.70;;;30.40;44.30;;;27.25;53.84;95425.25;4990969;28;20037;-72
2021/07/06 08:23:46;;;;;;;1.17;0.80;;;30.60;43.50;;;27.48;52.99;95422.47;4975711;28;20096;-72
2021/07/06 08:26:12;;;;;;;5.82;4.60;;;31.00;42.70;;;27.67;53.09;95425.75;4989020;28;20526;-72
2021/07/06 08:28:38;;;;;;;2.15;1.67;;;31.10;42.20;;;27.87;52.81;95425.19;5001375;28;20454;-72
2021/07/06 08:31:03;;;;;;;2.13;0.80;;;31.40;42.20;;;28.10;51.88;95427.75;4978054;28;20038;-72
2021/07/06 08:33:29;;;;;;;2.38;1.00;;;31.50;42.40;;;28.27;52.05;95422.38;5011054;28;20076;-72
2021/07/06 08:35:55;;;;;;;2.22;0.80;;;31.70;41.20;;;28.43;50.91;95420.78;4978608;28;20437;-72
2021/07/06 08:38:20;;;;;;;0.98;0.70;;;31.80;41.00;;;28.61;50.45;95427.00;5010853;28;20606;-71
2021/07/06 08:40:49;;;;;;;2.58;0.60;;;32.00;39.50;;;28.74;49.93;95420.59;4976630;28;20030;-71
2021/07/06 08:43:16;;;;;;;0.93;0.50;;;32.10;38.60;;;28.86;49.14;95411.84;4990756;28;20046;-71
2021/07/06 08:45:43;;;;;;;1.85;0.50;;;32.10;38.60;;;29.06;47.22;95422.00;4975044;28;20391;-72
2021/07/06 08:48:10;;;;;;;1.17;0.85;;;32.30;37.40;;;29.27;48.40;95422.88;4991058;28;20035;-71
2021/07/06 08:50:36;;;;;;;2.97;0.52;;;32.60;38.60;;;29.47;47.50;95426.81;4971979;28;20061;-72
2021/07/06 08:53:02;;;;;;;1.10;0.55;;;32.80;37.10;;;29.64;47.15;95430.56;4971065;28;20114;-72
2021/07/06 08:55:28;;;;;;;3.45;1.27;;;33.00;37.10;;;29.78;46.11;95426.50;4971928;28;20532;-72
2021/07/06 08:57:54;;;;;;;3.45;2.50;;;32.90;35.70;;;29.93;46.04;95411.59;4955144;28;20121;-72
2021/07/06 09:00:20;;;;;;;3.85;1.13;;;33.30;37.30;;;30.19;45.66;95416.88;4970994;28;20502;-72
2021/07/06 09:02:56;;;;;;;8.23;6.75;;;33.50;36.10;;;30.37;43.42;95415.63;4953887;28;20042;-72
2021/07/06 09:05:22;;;;;;;1.27;0.60;;;33.60;36.70;;;30.53;44.69;95413.06;4984922;28;20042;-71
2021/07/06 09:07:48;;;;;;;3.60;0.77;;;33.70;36.00;;;30.66;44.91;95419.38;4955571;28;20548;-72
2021/07/06 09:10:15;;;;;;;1.38;0.57;;;33.80;35.60;;;30.80;44.39;95421.81;4972367;28;20050;-72
2021/07/06 09:12:41;;;;;;;1.50;0.50;;;34.00;35.90;;;30.94;43.71;95414.16;4975047;28;20081;-73
2021/07/06 09:15:26;;;;;;;2.35;0.40;;;34.00;35.20;;;31.10;40.64;95417.81;4982830;28;20494;-72
2021/07/06 09:18:15;;;;;;;0.73;0.50;;;34.30;34.20;;;31.31;40.18;95415.06;4996748;28;20033;-72
2021/07/06 09:20:44;;;;;;;1.63;0.40;;;34.60;34.00;;;31.51;41.04;95416.88;4978103;28;20022;-72
2021/07/06 09:23:37;;;;;;;1.33;0.50;;;34.90;33.30;;;31.77;40.62;95411.13;5009577;28;20034;-72
2021/07/06 09:26:12;;;;;;;3.95;0.63;;;35.10;34.00;;;31.92;38.68;95407.72;4997136;28;20042;-72
2021/07/06 09:28:43;;;;;;;1.30;0.55;;;35.10;31.60;;;32.08;38.75;95399.63;4990963;28;20046;-72
2021/07/06 09:31:34;;;;;;;5.38;0.63;;;35.40;32.90;;;32.35;38.82;95409.00;4989664;28;20030;-72
2021/07/06 09:34:06;;;;;;;4.18;0.50;;;35.60;32.10;;;32.39;38.58;95404.47;4990352;28;20078;-72
2021/07/06 09:36:50;;;;;;;3.70;1.20;;;35.60;31.80;;;32.60;37.87;95393.41;4974746;28;20129;-72
2021/07/06 09:39:26;;;;;;;5.65;1.50;;;35.90;31.50;;;32.80;37.04;95397.84;4989391;28;20054;-73
2021/07/06 09:42:03;;;;;;;2.20;0.60;;;36.20;31.30;;;32.87;36.24;95403.50;4974367;28;20142;-72
2021/07/06 09:44:37;;;;;;;1.75;0.90;;;36.00;30.50;;;33.00;36.57;95406.94;4990201;28;20129;-71
2021/07/06 09:47:08;;;;;;;3.15;1.50;;;36.10;30.50;;;33.16;36.49;95398.81;5006066;28;20029;-73
2021/07/06 09:49:38;;;;;;;1.45;0.50;;;36.40;30.60;;;33.36;35.99;95403.25;5009394;28;20072;-72
2021/07/06 09:52:17;;;;;;;3.03;0.50;;;36.50;30.70;;;33.56;34.99;95390.47;4995821;28;20026;-72
2021/07/06 09:54:54;;;;;;;0.60;0.50;;;36.70;29.10;;;33.75;35.45;95387.03;4989819;28;20042;-72
2021/07/06 09:57:29;;;;;;;0.88;0.45;;;37.10;30.30;;;33.95;37.23;95396.06;4965914;28;20023;-72
2021/07/06 10:00:15;;;;;;;0.70;0.50;;;37.20;29.90;;;34.18;34.94;95393.47;4971901;28;20043;-72
2021/07/06 10:02:41;;;;;;;2.78;0.50;;;37.60;30.00;;;34.42;37.08;95385.03;4970531;28;20035;-72
2021/07/06 10:05:17;;;;;;;1.00;0.60;;;38.10;29.60;;;34.65;34.71;95382.38;4953651;28;20039;-72
2021/07/06 10:07:43;;;;;;;1.15;0.55;;;38.30;28.20;;;34.89;37.08;95378.56;4954692;28;20697;-71
2021/07/06 10:10:11;;;;;;;0.77;0.50;;;38.70;28.80;;;35.32;36.42;95380.09;4986075;28;20031;-71
2021/07/06 10:12:38;;;;;;;8.05;0.60;;;39.30;28.60;;;35.75;35.75;95378.03;4970034;28;20039;-72
2021/07/06 10:15:06;;;;;;;3.03;0.50;;;39.50;27.10;;;36.09;33.63;95376.22;4937103;28;20046;-72
2021/07/06 10:17:32;;;;;;;2.10;0.40;;;39.70;27.00;;;36.41;34.31;95371.97;4999744;28;20129;-71
2021/07/06 10:19:57;;;;;;;0.75;0.40;;;39.90;26.20;;;36.72;33.73;95372.75;4992400;28;20062;-72